sensor_id;sensor_type;location;lat;lon;timestamp;P1;durP1;ratioP1;P2;durP2;ratioP2
20794;SDS011;28087;-33.874;151.240;2023-02-28T00:00:48;7.32;;;1.60;;
20794;SDS011;28087;-33.874;151.240;2023-02-28T00:03:23;7.10;;;1.40;;
20794;SDS011;28087;-33.874;151.240;2023-02-28T00:06:01;7.50;;;1.60;;
20794;SDS011;28087;-33.874;151.240;2023-02-28T00:08:37;8.00;;;1.73;;
20794;SDS011;28087;-33.874;151.240;2023-02-28T00:11:18;8.63;;;2.08;;
20794;SDS011;28087;-33.874;151.240;2023-02-28T00:13:57;8.85;;;1.60;;
20794;SDS011;28087;-33.874;151.240;2023-02-28T00:16:34;8.60;;;1.98;;
20794;SDS011;28087;-33.874;151.240;2023-02-28T00:19:13;9.55;;;1.92;;
20794;SDS011;28087;-33.874;151.240;2023-02-28T00:21:49;11.48;;;2.10;;
20794;SDS011;28087;-33.874;151.240;2023-02-28T00:24:24;8.75;;;1.73;;
20794;SDS011;28087;-33.874;151.240;2023-02-28T00:27:03;8.40;;;1.98;;
20794;SDS011;28087;-33.874;151.240;2023-02-28T00:29:38;14.30;;;1.80;;
20794;SDS011;28087;-33.874;151.240;2023-02-28T00:32:17;10.65;;;2.08;;
20794;SDS011;28087;-33.874;151.240;2023-02-28T00:34:52;9.25;;;1.77;;
20794;SDS011;28087;-33.874;151.240;2023-02-28T00:37:29;8.38;;;1.60;;
20794;SDS011;28087;-33.874;151.240;2023-02-28T00:40:09;8.45;;;2.15;;
20794;SDS011;28087;-33.874;151.240;2023-02-28T00:42:47;7.05;;;1.65;;
20794;SDS011;28087;-33.874;151.240;2023-02-28T00:45:28;6.45;;;1.58;;
20794;SDS011;28087;-33.874;151.240;2023-02-28T00:48:08;9.68;;;1.67;;
20794;SDS011;28087;-33.874;151.240;2023-02-28T00:50:43;8.88;;;1.90;;
20794;SDS011;28087;-33.874;151.240;2023-02-28T00:53:25;7.28;;;1.38;;
20794;SDS011;28087;-33.874;151.240;2023-02-28T00:56:00;8.98;;;1.58;;
20794;SDS011;28087;-33.874;151.240;2023-02-28T00:58:39;5.80;;;1.23;;
20794;SDS011;28087;-33.874;151.240;2023-02-28T01:01:17;10.27;;;1.70;;
20794;SDS011;28087;-33.874;151.240;2023-02-28T01:03:52;8.82;;;1.35;;
20794;SDS011;28087;-33.874;151.240;2023-02-28T01:06:27;7.60;;;1.50;;
20794;SDS011;28087;-33.874;151.240;2023-02-28T01:09:04;10.23;;;1.40;;
20794;SDS011;28087;-33.874;151.240;2023-02-28T01:11:39;7.63;;;1.58;;
20794;SDS011;28087;-33.874;151.240;2023-02-28T01:14:18;6.75;;;1.25;;
20794;SDS011;28087;-33.874;151.240;2023-02-28T01:16:53;7.60;;;1.35;;
20794;SDS011;28087;-33.874;151.240;2023-02-28T01:19:29;7.75;;;1.73;;
20794;SDS011;28087;-33.874;151.240;2023-02-28T01:22:05;7.32;;;1.70;;
20794;SDS011;28087;-33.874;151.240;2023-02-28T01:24:43;6.22;;;1.30;;
20794;SDS011;28087;-33.874;151.240;2023-02-28T01:27:18;8.85;;;1.50;;
20794;SDS011;28087;-33.874;151.240;2023-02-28T01:29:57;6.30;;;1.20;;
20794;SDS011;28087;-33.874;151.240;2023-02-28T01:32:32;6.78;;;1.70;;
20794;SDS011;28087;-33.874;151.240;2023-02-28T01:35:10;6.15;;;1.30;;
20794;SDS011;28087;-33.874;151.240;2023-02-28T01:37:45;8.27;;;1.67;;
20794;SDS011;28087;-33.874;151.240;2023-02-28T01:40:32;10.35;;;2.15;;
20794;SDS011;28087;-33.874;151.240;2023-02-28T01:43:09;10.63;;;1.92;;
20794;SDS011;28087;-33.874;151.240;2023-02-28T01:45:58;7.07;;;1.40;;
20794;SDS011;28087;-33.874;151.240;2023-02-28T01:48:35;7.82;;;1.80;;
20794;SDS011;28087;-33.874;151.240;2023-02-28T01:51:15;7.78;;;1.92;;
20794;SDS011;28087;-33.874;151.240;2023-02-28T01:53:56;6.47;;;1.85;;
20794;SDS011;28087;-33.874;151.240;2023-02-28T01:56:35;6.13;;;1.80;;
20794;SDS011;28087;-33.874;151.240;2023-02-28T01:59:12;5.95;;;1.50;;
20794;SDS011;28087;-33.874;151.240;2023-02-28T02:01:58;7.13;;;1.98;;
20794;SDS011;28087;-33.874;151.240;2023-02-28T02:04:36;7.78;;;1.88;;
20794;SDS011;28087;-33.874;151.240;2023-02-28T02:07:14;8.15;;;1.88;;
20794;SDS011;28087;-33.874;151.240;2023-02-28T02:09:49;7.70;;;1.50;;
20794;SDS011;28087;-33.874;151.240;2023-02-28T02:12:48;8.23;;;1.90;;
20794;SDS011;28087;-33.874;151.240;2023-02-28T02:15:42;8.50;;;1.80;;
20794;SDS011;28087;-33.874;151.240;2023-02-28T02:18:29;6.32;;;1.45;;
20794;SDS011;28087;-33.874;151.240;2023-02-28T02:24:42;6.22;;;1.50;;
20794;SDS011;28087;-33.874;151.240;2023-02-28T02:27:39;5.25;;;1.20;;
20794;SDS011;28087;-33.874;151.240;2023-02-28T02:30:38;7.30;;;1.23;;
20794;SDS011;28087;-33.874;151.240;2023-02-28T02:36:39;8.68;;;1.38;;
20794;SDS011;28087;-33.874;151.240;2023-02-28T02:39:23;7.15;;;1.50;;
20794;SDS011;28087;-33.874;151.240;2023-02-28T02:42:05;7.05;;;1.58;;
20794;SDS011;28087;-33.874;151.240;2023-02-28T02:44:50;11.73;;;1.60;;
20794;SDS011;28087;-33.874;151.240;2023-02-28T02:47:33;8.77;;;1.52;;
20794;SDS011;28087;-33.874;151.240;2023-02-28T02:50:11;7.10;;;1.50;;
20794;SDS011;28087;-33.874;151.240;2023-02-28T02:52:55;7.15;;;1.55;;
20794;SDS011;28087;-33.874;151.240;2023-02-28T02:55:35;8.75;;;1.50;;
20794;SDS011;28087;-33.874;151.240;2023-02-28T02:58:14;8.98;;;1.52;;
20794;SDS011;28087;-33.874;151.240;2023-02-28T03:00:54;8.80;;;1.95;;
20794;SDS011;28087;-33.874;151.240;2023-02-28T03:03:33;7.78;;;1.77;;
20794;SDS011;28087;-33.874;151.240;2023-02-28T03:06:10;13.93;;;2.15;;
20794;SDS011;28087;-33.874;151.240;2023-02-28T03:08:47;8.30;;;2.00;;
20794;SDS011;28087;-33.874;151.240;2023-02-28T03:11:23;9.00;;;2.10;;
20794;SDS011;28087;-33.874;151.240;2023-02-28T03:14:06;7.65;;;1.60;;
20794;SDS011;28087;-33.874;151.240;2023-02-28T03:16:55;5.13;;;1.27;;
20794;SDS011;28087;-33.874;151.240;2023-02-28T03:19:51;6.97;;;1.77;;
20794;SDS011;28087;-33.874;151.240;2023-02-28T03:22:45;7.95;;;1.50;;
20794;SDS011;28087;-33.874;151.240;2023-02-28T03:25:31;7.28;;;1.63;;
20794;SDS011;28087;-33.874;151.240;2023-02-28T03:28:14;12.38;;;5.07;;
20794;SDS011;28087;-33.874;151.240;2023-02-28T03:30:56;6.38;;;1.60;;
20794;SDS011;28087;-33.874;151.240;2023-02-28T03:33:41;13.70;;;5.63;;
20794;SDS011;28087;-33.874;151.240;2023-02-28T03:36:25;12.93;;;4.85;;
20794;SDS011;28087;-33.874;151.240;2023-02-28T03:39:03;6.13;;;1.33;;
20794;SDS011;28087;-33.874;151.240;2023-02-28T03:41:43;7.30;;;1.50;;
20794;SDS011;28087;-33.874;151.240;2023-02-28T03:44:21;8.98;;;1.38;;
20794;SDS011;28087;-33.874;151.240;2023-02-28T03:47:03;6.70;;;1.50;;
20794;SDS011;28087;-33.874;151.240;2023-02-28T03:49:44;4.78;;;1.27;;
20794;SDS011;28087;-33.874;151.240;2023-02-28T03:52:23;5.78;;;1.27;;
20794;SDS011;28087;-33.874;151.240;2023-02-28T03:55:05;6.93;;;1.30;;
20794;SDS011;28087;-33.874;151.240;2023-02-28T03:57:47;5.72;;;1.13;;
20794;SDS011;28087;-33.874;151.240;2023-02-28T04:00:33;6.43;;;1.38;;
20794;SDS011;28087;-33.874;151.240;2023-02-28T04:03:11;6.80;;;1.40;;
20794;SDS011;28087;-33.874;151.240;2023-02-28T04:05:48;6.18;;;1.10;;
20794;SDS011;28087;-33.874;151.240;2023-02-28T04:08:28;5.40;;;0.90;;
20794;SDS011;28087;-33.874;151.240;2023-02-28T04:11:03;4.60;;;1.00;;
20794;SDS011;28087;-33.874;151.240;2023-02-28T04:13:47;5.60;;;1.10;;
20794;SDS011;28087;-33.874;151.240;2023-02-28T04:16:22;6.30;;;1.30;;
20794;SDS011;28087;-33.874;151.240;2023-02-28T04:19:03;6.47;;;1.08;;
20794;SDS011;28087;-33.874;151.240;2023-02-28T04:21:41;6.35;;;1.10;;
20794;SDS011;28087;-33.874;151.240;2023-02-28T04:24:18;6.07;;;1.05;;
20794;SDS011;28087;-33.874;151.240;2023-02-28T04:26:54;6.07;;;1.17;;
20794;SDS011;28087;-33.874;151.240;2023-02-28T04:29:32;4.53;;;0.90;;
20794;SDS011;28087;-33.874;151.240;2023-02-28T04:32:08;8.32;;;1.25;;
20794;SDS011;28087;-33.874;151.240;2023-02-28T04:34:47;4.15;;;0.88;;
20794;SDS011;28087;-33.874;151.240;2023-02-28T04:37:22;8.15;;;1.20;;
20794;SDS011;28087;-33.874;151.240;2023-02-28T04:39:59;5.05;;;0.80;;
20794;SDS011;28087;-33.874;151.240;2023-02-28T04:42:35;8.45;;;1.08;;
20794;SDS011;28087;-33.874;151.240;2023-02-28T04:45:13;4.53;;;1.02;;
20794;SDS011;28087;-33.874;151.240;2023-02-28T04:47:49;6.72;;;1.20;;
20794;SDS011;28087;-33.874;151.240;2023-02-28T04:50:25;5.32;;;1.10;;
20794;SDS011;28087;-33.874;151.240;2023-02-28T04:53:01;6.28;;;1.10;;
20794;SDS011;28087;-33.874;151.240;2023-02-28T04:55:36;5.88;;;1.02;;
20794;SDS011;28087;-33.874;151.240;2023-02-28T04:58:11;6.68;;;1.00;;
20794;SDS011;28087;-33.874;151.240;2023-02-28T05:00:51;6.65;;;1.25;;
20794;SDS011;28087;-33.874;151.240;2023-02-28T05:03:29;7.10;;;1.20;;
20794;SDS011;28087;-33.874;151.240;2023-02-28T05:06:04;5.50;;;1.15;;
20794;SDS011;28087;-33.874;151.240;2023-02-28T05:08:40;6.47;;;1.05;;
20794;SDS011;28087;-33.874;151.240;2023-02-28T05:11:18;4.55;;;1.00;;
20794;SDS011;28087;-33.874;151.240;2023-02-28T05:13:56;9.48;;;1.27;;
20794;SDS011;28087;-33.874;151.240;2023-02-28T05:16:34;9.43;;;1.30;;
20794;SDS011;28087;-33.874;151.240;2023-02-28T05:19:09;7.03;;;1.23;;
20794;SDS011;28087;-33.874;151.240;2023-02-28T05:21:49;3.88;;;1.02;;
20794;SDS011;28087;-33.874;151.240;2023-02-28T05:24:25;6.82;;;1.30;;
20794;SDS011;28087;-33.874;151.240;2023-02-28T05:27:00;6.45;;;1.40;;
20794;SDS011;28087;-33.874;151.240;2023-02-28T05:29:36;6.55;;;1.30;;
20794;SDS011;28087;-33.874;151.240;2023-02-28T05:32:17;7.53;;;1.30;;
20794;SDS011;28087;-33.874;151.240;2023-02-28T05:34:52;5.32;;;1.08;;
20794;SDS011;28087;-33.874;151.240;2023-02-28T05:37:27;5.88;;;1.27;;
20794;SDS011;28087;-33.874;151.240;2023-02-28T05:40:04;5.05;;;1.20;;
20794;SDS011;28087;-33.874;151.240;2023-02-28T05:42:40;5.70;;;1.20;;
20794;SDS011;28087;-33.874;151.240;2023-02-28T05:45:16;6.00;;;1.23;;
20794;SDS011;28087;-33.874;151.240;2023-02-28T05:47:55;6.47;;;1.17;;
20794;SDS011;28087;-33.874;151.240;2023-02-28T05:50:31;7.97;;;1.38;;
20794;SDS011;28087;-33.874;151.240;2023-02-28T05:53:06;6.03;;;1.20;;
20794;SDS011;28087;-33.874;151.240;2023-02-28T05:55:42;9.27;;;1.30;;
20794;SDS011;28087;-33.874;151.240;2023-02-28T05:58:18;5.18;;;1.17;;
20794;SDS011;28087;-33.874;151.240;2023-02-28T06:00:54;6.15;;;1.27;;
20794;SDS011;28087;-33.874;151.240;2023-02-28T06:03:31;9.52;;;1.45;;
20794;SDS011;28087;-33.874;151.240;2023-02-28T06:06:07;6.80;;;1.20;;
20794;SDS011;28087;-33.874;151.240;2023-02-28T06:08:42;8.20;;;1.25;;
20794;SDS011;28087;-33.874;151.240;2023-02-28T06:11:19;6.65;;;1.20;;
20794;SDS011;28087;-33.874;151.240;2023-02-28T06:13:58;7.97;;;1.25;;
20794;SDS011;28087;-33.874;151.240;2023-02-28T06:16:34;6.65;;;1.33;;
20794;SDS011;28087;-33.874;151.240;2023-02-28T06:19:11;8.75;;;1.50;;
20794;SDS011;28087;-33.874;151.240;2023-02-28T06:21:49;7.13;;;1.45;;
20794;SDS011;28087;-33.874;151.240;2023-02-28T06:24:25;7.40;;;1.42;;
20794;SDS011;28087;-33.874;151.240;2023-02-28T06:27:02;6.80;;;1.33;;
20794;SDS011;28087;-33.874;151.240;2023-02-28T06:29:37;5.03;;;1.20;;
20794;SDS011;28087;-33.874;151.240;2023-02-28T06:32:13;10.48;;;1.65;;
20794;SDS011;28087;-33.874;151.240;2023-02-28T06:34:51;5.88;;;1.35;;
20794;SDS011;28087;-33.874;151.240;2023-02-28T06:37:28;6.45;;;1.50;;
20794;SDS011;28087;-33.874;151.240;2023-02-28T06:40:08;7.45;;;1.40;;
20794;SDS011;28087;-33.874;151.240;2023-02-28T06:42:45;7.68;;;1.50;;
20794;SDS011;28087;-33.874;151.240;2023-02-28T06:45:20;6.07;;;1.50;;
20794;SDS011;28087;-33.874;151.240;2023-02-28T06:47:56;10.02;;;1.70;;
20794;SDS011;28087;-33.874;151.240;2023-02-28T06:50:33;4.97;;;1.40;;
20794;SDS011;28087;-33.874;151.240;2023-02-28T06:53:09;5.97;;;1.30;;
20794;SDS011;28087;-33.874;151.240;2023-02-28T06:55:45;8.18;;;1.60;;
20794;SDS011;28087;-33.874;151.240;2023-02-28T06:58:21;8.70;;;1.60;;
20794;SDS011;28087;-33.874;151.240;2023-02-28T07:00:56;8.77;;;1.67;;
20794;SDS011;28087;-33.874;151.240;2023-02-28T07:03:32;6.80;;;1.73;;
20794;SDS011;28087;-33.874;151.240;2023-02-28T07:06:11;8.77;;;1.58;;
20794;SDS011;28087;-33.874;151.240;2023-02-28T07:08:48;5.72;;;1.40;;
20794;SDS011;28087;-33.874;151.240;2023-02-28T07:11:24;6.93;;;1.60;;
20794;SDS011;28087;-33.874;151.240;2023-02-28T07:14:01;5.47;;;1.50;;
20794;SDS011;28087;-33.874;151.240;2023-02-28T07:16:37;7.78;;;1.60;;
20794;SDS011;28087;-33.874;151.240;2023-02-28T07:19:12;8.65;;;1.65;;
20794;SDS011;28087;-33.874;151.240;2023-02-28T07:21:50;7.38;;;1.30;;
20794;SDS011;28087;-33.874;151.240;2023-02-28T07:24:25;6.90;;;1.65;;
20794;SDS011;28087;-33.874;151.240;2023-02-28T07:27:01;5.57;;;1.70;;
20794;SDS011;28087;-33.874;151.240;2023-02-28T07:29:37;8.90;;;1.63;;
20794;SDS011;28087;-33.874;151.240;2023-02-28T07:32:13;7.13;;;1.75;;
20794;SDS011;28087;-33.874;151.240;2023-02-28T07:34:49;9.75;;;2.05;;
20794;SDS011;28087;-33.874;151.240;2023-02-28T07:37:26;7.60;;;1.70;;
20794;SDS011;28087;-33.874;151.240;2023-02-28T07:40:07;8.77;;;1.77;;
20794;SDS011;28087;-33.874;151.240;2023-02-28T07:42:44;5.93;;;1.73;;
20794;SDS011;28087;-33.874;151.240;2023-02-28T07:45:20;8.68;;;1.90;;
20794;SDS011;28087;-33.874;151.240;2023-02-28T07:47:55;8.18;;;2.00;;
20794;SDS011;28087;-33.874;151.240;2023-02-28T07:50:31;8.73;;;1.85;;
20794;SDS011;28087;-33.874;151.240;2023-02-28T07:53:08;6.90;;;1.90;;
20794;SDS011;28087;-33.874;151.240;2023-02-28T07:55:44;6.18;;;1.90;;
20794;SDS011;28087;-33.874;151.240;2023-02-28T07:58:19;8.82;;;1.90;;
20794;SDS011;28087;-33.874;151.240;2023-02-28T08:00:56;6.07;;;1.70;;
20794;SDS011;28087;-33.874;151.240;2023-02-28T08:03:38;6.43;;;1.60;;
20794;SDS011;28087;-33.874;151.240;2023-02-28T08:06:18;8.88;;;2.10;;
20794;SDS011;28087;-33.874;151.240;2023-02-28T08:08:56;7.18;;;1.92;;
20794;SDS011;28087;-33.874;151.240;2023-02-28T08:11:31;7.68;;;1.98;;
20794;SDS011;28087;-33.874;151.240;2023-02-28T08:14:07;10.45;;;1.83;;
20794;SDS011;28087;-33.874;151.240;2023-02-28T08:16:43;10.82;;;2.25;;
20794;SDS011;28087;-33.874;151.240;2023-02-28T08:19:18;9.15;;;2.00;;
20794;SDS011;28087;-33.874;151.240;2023-02-28T08:21:54;6.20;;;1.95;;
20794;SDS011;28087;-33.874;151.240;2023-02-28T08:24:32;8.77;;;2.13;;
20794;SDS011;28087;-33.874;151.240;2023-02-28T08:27:07;8.95;;;2.20;;
20794;SDS011;28087;-33.874;151.240;2023-02-28T08:29:42;8.00;;;2.10;;
20794;SDS011;28087;-33.874;151.240;2023-02-28T08:32:19;8.57;;;2.10;;
20794;SDS011;28087;-33.874;151.240;2023-02-28T08:34:58;9.32;;;2.00;;
20794;SDS011;28087;-33.874;151.240;2023-02-28T08:37:34;7.35;;;1.92;;
20794;SDS011;28087;-33.874;151.240;2023-02-28T08:40:12;11.02;;;2.33;;
20794;SDS011;28087;-33.874;151.240;2023-02-28T08:42:48;8.38;;;2.10;;
20794;SDS011;28087;-33.874;151.240;2023-02-28T08:45:23;7.95;;;2.10;;
20794;SDS011;28087;-33.874;151.240;2023-02-28T08:48:00;9.77;;;2.03;;
20794;SDS011;28087;-33.874;151.240;2023-02-28T08:50:35;10.32;;;2.13;;
20794;SDS011;28087;-33.874;151.240;2023-02-28T08:53:16;9.27;;;1.88;;
20794;SDS011;28087;-33.874;151.240;2023-02-28T08:56:00;10.30;;;2.17;;
20794;SDS011;28087;-33.874;151.240;2023-02-28T08:58:37;9.32;;;2.35;;
20794;SDS011;28087;-33.874;151.240;2023-02-28T09:01:18;7.50;;;2.35;;
20794;SDS011;28087;-33.874;151.240;2023-02-28T09:03:55;9.02;;;2.10;;
20794;SDS011;28087;-33.874;151.240;2023-02-28T09:06:32;9.35;;;2.35;;
20794;SDS011;28087;-33.874;151.240;2023-02-28T09:09:08;7.40;;;2.13;;
20794;SDS011;28087;-33.874;151.240;2023-02-28T09:11:45;11.13;;;2.30;;
20794;SDS011;28087;-33.874;151.240;2023-02-28T09:14:20;10.52;;;2.38;;
20794;SDS011;28087;-33.874;151.240;2023-02-28T09:16:56;7.68;;;2.38;;
20794;SDS011;28087;-33.874;151.240;2023-02-28T09:19:32;8.77;;;2.40;;
20794;SDS011;28087;-33.874;151.240;2023-02-28T09:22:07;7.38;;;2.28;;
20794;SDS011;28087;-33.874;151.240;2023-02-28T09:24:43;8.18;;;2.05;;
20794;SDS011;28087;-33.874;151.240;2023-02-28T09:27:21;10.95;;;2.30;;
20794;SDS011;28087;-33.874;151.240;2023-02-28T09:29:57;8.32;;;2.10;;
20794;SDS011;28087;-33.874;151.240;2023-02-28T09:32:32;10.65;;;2.40;;
20794;SDS011;28087;-33.874;151.240;2023-02-28T09:35:08;10.98;;;2.55;;
20794;SDS011;28087;-33.874;151.240;2023-02-28T09:37:46;8.45;;;2.13;;
20794;SDS011;28087;-33.874;151.240;2023-02-28T09:40:22;9.13;;;2.50;;
20794;SDS011;28087;-33.874;151.240;2023-02-28T09:43:01;9.25;;;2.65;;
20794;SDS011;28087;-33.874;151.240;2023-02-28T09:45:37;7.93;;;2.40;;
20794;SDS011;28087;-33.874;151.240;2023-02-28T09:48:16;9.77;;;2.40;;
20794;SDS011;28087;-33.874;151.240;2023-02-28T09:50:59;10.48;;;2.55;;
20794;SDS011;28087;-33.874;151.240;2023-02-28T09:53:40;8.00;;;2.58;;
20794;SDS011;28087;-33.874;151.240;2023-02-28T09:56:25;8.98;;;2.60;;
20794;SDS011;28087;-33.874;151.240;2023-02-28T09:59:09;8.30;;;2.60;;
20794;SDS011;28087;-33.874;151.240;2023-02-28T10:01:53;9.57;;;2.60;;
20794;SDS011;28087;-33.874;151.240;2023-02-28T10:04:40;10.55;;;2.42;;
20794;SDS011;28087;-33.874;151.240;2023-02-28T10:07:33;9.65;;;2.80;;
20794;SDS011;28087;-33.874;151.240;2023-02-28T10:10:24;9.55;;;2.70;;
20794;SDS011;28087;-33.874;151.240;2023-02-28T10:13:06;8.32;;;2.58;;
20794;SDS011;28087;-33.874;151.240;2023-02-28T10:15:58;10.57;;;2.90;;
20794;SDS011;28087;-33.874;151.240;2023-02-28T10:18:39;11.07;;;2.90;;
20794;SDS011;28087;-33.874;151.240;2023-02-28T10:21:21;12.40;;;3.03;;
20794;SDS011;28087;-33.874;151.240;2023-02-28T10:24:04;12.57;;;2.80;;
20794;SDS011;28087;-33.874;151.240;2023-02-28T10:26:48;9.20;;;2.83;;
20794;SDS011;28087;-33.874;151.240;2023-02-28T10:29:26;11.93;;;3.20;;
20794;SDS011;28087;-33.874;151.240;2023-02-28T10:32:09;10.57;;;2.45;;
20794;SDS011;28087;-33.874;151.240;2023-02-28T10:34:51;9.05;;;2.80;;
20794;SDS011;28087;-33.874;151.240;2023-02-28T10:37:29;11.07;;;2.70;;
20794;SDS011;28087;-33.874;151.240;2023-02-28T10:40:11;8.93;;;2.70;;
20794;SDS011;28087;-33.874;151.240;2023-02-28T10:43:02;9.63;;;2.50;;
20794;SDS011;28087;-33.874;151.240;2023-02-28T10:45:39;13.82;;;2.92;;
20794;SDS011;28087;-33.874;151.240;2023-02-28T10:48:38;9.68;;;3.05;;
20794;SDS011;28087;-33.874;151.240;2023-02-28T10:51:16;11.82;;;3.13;;
20794;SDS011;28087;-33.874;151.240;2023-02-28T10:53:52;12.27;;;2.90;;
20794;SDS011;28087;-33.874;151.240;2023-02-28T10:56:31;9.43;;;2.83;;
20794;SDS011;28087;-33.874;151.240;2023-02-28T10:59:21;9.43;;;3.17;;
20794;SDS011;28087;-33.874;151.240;2023-02-28T11:02:01;9.82;;;2.80;;
20794;SDS011;28087;-33.874;151.240;2023-02-28T11:05:02;14.48;;;2.80;;
20794;SDS011;28087;-33.874;151.240;2023-02-28T11:07:52;11.38;;;3.30;;
20794;SDS011;28087;-33.874;151.240;2023-02-28T11:10:30;9.38;;;3.05;;
20794;SDS011;28087;-33.874;151.240;2023-02-28T11:13:12;12.07;;;3.10;;
20794;SDS011;28087;-33.874;151.240;2023-02-28T11:15:53;10.73;;;2.78;;
20794;SDS011;28087;-33.874;151.240;2023-02-28T11:18:32;11.38;;;3.53;;
20794;SDS011;28087;-33.874;151.240;2023-02-28T11:21:18;15.57;;;3.33;;
20794;SDS011;28087;-33.874;151.240;2023-02-28T11:23:59;12.02;;;3.20;;
20794;SDS011;28087;-33.874;151.240;2023-02-28T11:26:39;10.93;;;3.13;;
20794;SDS011;28087;-33.874;151.240;2023-02-28T11:29:20;9.48;;;3.40;;
20794;SDS011;28087;-33.874;151.240;2023-02-28T11:32:05;9.50;;;3.00;;
20794;SDS011;28087;-33.874;151.240;2023-02-28T11:35:02;14.23;;;3.70;;
20794;SDS011;28087;-33.874;151.240;2023-02-28T11:37:54;11.90;;;3.40;;
20794;SDS011;28087;-33.874;151.240;2023-02-28T11:40:34;10.27;;;3.25;;
20794;SDS011;28087;-33.874;151.240;2023-02-28T11:43:20;9.43;;;3.28;;
20794;SDS011;28087;-33.874;151.240;2023-02-28T11:46:10;9.80;;;3.10;;
20794;SDS011;28087;-33.874;151.240;2023-02-28T11:48:57;11.27;;;3.60;;
20794;SDS011;28087;-33.874;151.240;2023-02-28T11:51:42;13.13;;;3.30;;
20794;SDS011;28087;-33.874;151.240;2023-02-28T11:54:31;12.60;;;3.50;;
20794;SDS011;28087;-33.874;151.240;2023-02-28T11:57:32;13.85;;;3.40;;
20794;SDS011;28087;-33.874;151.240;2023-02-28T12:00:29;9.88;;;3.13;;
20794;SDS011;28087;-33.874;151.240;2023-02-28T12:03:15;11.88;;;3.55;;
20794;SDS011;28087;-33.874;151.240;2023-02-28T12:06:06;11.02;;;3.08;;
20794;SDS011;28087;-33.874;151.240;2023-02-28T12:08:53;9.25;;;3.65;;
20794;SDS011;28087;-33.874;151.240;2023-02-28T12:11:43;12.57;;;3.60;;
20794;SDS011;28087;-33.874;151.240;2023-02-28T12:17:55;13.20;;;3.60;;
20794;SDS011;28087;-33.874;151.240;2023-02-28T12:20:45;14.80;;;3.60;;
20794;SDS011;28087;-33.874;151.240;2023-02-28T12:23:33;11.80;;;3.92;;
20794;SDS011;28087;-33.874;151.240;2023-02-28T12:26:19;9.35;;;3.30;;
20794;SDS011;28087;-33.874;151.240;2023-02-28T12:29:09;13.43;;;3.58;;
20794;SDS011;28087;-33.874;151.240;2023-02-28T12:31:51;12.27;;;3.40;;
20794;SDS011;28087;-33.874;151.240;2023-02-28T12:34:31;13.43;;;3.63;;
20794;SDS011;28087;-33.874;151.240;2023-02-28T12:37:10;11.75;;;3.40;;
20794;SDS011;28087;-33.874;151.240;2023-02-28T12:39:54;14.15;;;3.55;;
20794;SDS011;28087;-33.874;151.240;2023-02-28T12:42:36;11.65;;;3.10;;
20794;SDS011;28087;-33.874;151.240;2023-02-28T12:45:18;12.55;;;3.50;;
20794;SDS011;28087;-33.874;151.240;2023-02-28T12:47:57;12.13;;;3.65;;
20794;SDS011;28087;-33.874;151.240;2023-02-28T12:50:38;15.10;;;3.75;;
20794;SDS011;28087;-33.874;151.240;2023-02-28T12:53:15;11.57;;;3.30;;
20794;SDS011;28087;-33.874;151.240;2023-02-28T12:56:00;11.40;;;3.58;;
20794;SDS011;28087;-33.874;151.240;2023-02-28T12:58:47;15.50;;;3.70;;
20794;SDS011;28087;-33.874;151.240;2023-02-28T13:01:46;11.63;;;3.55;;
20794;SDS011;28087;-33.874;151.240;2023-02-28T13:04:55;9.13;;;3.38;;
20794;SDS011;28087;-33.874;151.240;2023-02-28T13:11:02;14.20;;;3.92;;
20794;SDS011;28087;-33.874;151.240;2023-02-28T13:13:49;13.52;;;3.75;;
20794;SDS011;28087;-33.874;151.240;2023-02-28T13:16:51;12.27;;;3.65;;
20794;SDS011;28087;-33.874;151.240;2023-02-28T13:19:33;12.02;;;3.67;;
20794;SDS011;28087;-33.874;151.240;2023-02-28T13:22:16;12.15;;;4.28;;
20794;SDS011;28087;-33.874;151.240;2023-02-28T13:24:53;11.88;;;3.50;;
20794;SDS011;28087;-33.874;151.240;2023-02-28T13:27:36;15.15;;;4.30;;
20794;SDS011;28087;-33.874;151.240;2023-02-28T13:33:32;12.05;;;3.63;;
20794;SDS011;28087;-33.874;151.240;2023-02-28T13:36:10;13.90;;;3.75;;
20794;SDS011;28087;-33.874;151.240;2023-02-28T13:39:01;12.00;;;3.60;;
20794;SDS011;28087;-33.874;151.240;2023-02-28T13:41:44;12.63;;;3.65;;
20794;SDS011;28087;-33.874;151.240;2023-02-28T13:44:22;12.75;;;3.50;;
20794;SDS011;28087;-33.874;151.240;2023-02-28T13:53:06;14.98;;;4.05;;
20794;SDS011;28087;-33.874;151.240;2023-02-28T13:56:06;13.27;;;4.13;;
20794;SDS011;28087;-33.874;151.240;2023-02-28T13:58:54;11.80;;;3.80;;
20794;SDS011;28087;-33.874;151.240;2023-02-28T14:01:42;12.32;;;3.70;;
20794;SDS011;28087;-33.874;151.240;2023-02-28T14:07:40;13.45;;;3.88;;
20794;SDS011;28087;-33.874;151.240;2023-02-28T14:10:24;15.63;;;3.72;;
20794;SDS011;28087;-33.874;151.240;2023-02-28T14:13:03;12.50;;;4.03;;
20794;SDS011;28087;-33.874;151.240;2023-02-28T14:15:49;11.50;;;3.67;;
20794;SDS011;28087;-33.874;151.240;2023-02-28T14:18:32;15.63;;;4.00;;
20794;SDS011;28087;-33.874;151.240;2023-02-28T14:21:10;14.80;;;3.58;;
20794;SDS011;28087;-33.874;151.240;2023-02-28T14:27:07;14.75;;;3.65;;
20794;SDS011;28087;-33.874;151.240;2023-02-28T14:29:59;17.33;;;3.90;;
20794;SDS011;28087;-33.874;151.240;2023-02-28T14:32:58;15.07;;;3.70;;
20794;SDS011;28087;-33.874;151.240;2023-02-28T14:35:52;14.45;;;3.63;;
20794;SDS011;28087;-33.874;151.240;2023-02-28T14:38:44;9.75;;;3.72;;
20794;SDS011;28087;-33.874;151.240;2023-02-28T14:41:28;16.13;;;3.88;;
20794;SDS011;28087;-33.874;151.240;2023-02-28T14:44:13;16.10;;;3.90;;
20794;SDS011;28087;-33.874;151.240;2023-02-28T14:46:52;13.80;;;3.78;;
20794;SDS011;28087;-33.874;151.240;2023-02-28T14:49:47;10.82;;;3.50;;
20794;SDS011;28087;-33.874;151.240;2023-02-28T14:52:44;12.68;;;3.88;;
20794;SDS011;28087;-33.874;151.240;2023-02-28T14:55:19;15.57;;;3.78;;
20794;SDS011;28087;-33.874;151.240;2023-02-28T14:58:02;12.40;;;3.78;;
20794;SDS011;28087;-33.874;151.240;2023-02-28T15:00:46;18.50;;;4.60;;
20794;SDS011;28087;-33.874;151.240;2023-02-28T15:03:29;14.23;;;4.20;;
20794;SDS011;28087;-33.874;151.240;2023-02-28T15:06:12;13.43;;;3.67;;
20794;SDS011;28087;-33.874;151.240;2023-02-28T15:09:09;12.20;;;3.70;;
20794;SDS011;28087;-33.874;151.240;2023-02-28T15:11:48;12.88;;;4.10;;
20794;SDS011;28087;-33.874;151.240;2023-02-28T15:14:27;13.32;;;3.92;;
20794;SDS011;28087;-33.874;151.240;2023-02-28T15:17:05;16.08;;;3.83;;
20794;SDS011;28087;-33.874;151.240;2023-02-28T15:19:46;13.27;;;3.45;;
20794;SDS011;28087;-33.874;151.240;2023-02-28T15:22:26;14.98;;;3.22;;
20794;SDS011;28087;-33.874;151.240;2023-02-28T15:25:07;13.65;;;3.70;;
20794;SDS011;28087;-33.874;151.240;2023-02-28T15:27:47;13.52;;;3.63;;
20794;SDS011;28087;-33.874;151.240;2023-02-28T15:30:29;13.50;;;3.60;;
20794;SDS011;28087;-33.874;151.240;2023-02-28T15:33:07;13.15;;;3.60;;
20794;SDS011;28087;-33.874;151.240;2023-02-28T15:36:09;14.10;;;3.67;;
20794;SDS011;28087;-33.874;151.240;2023-02-28T15:38:50;16.02;;;4.03;;
20794;SDS011;28087;-33.874;151.240;2023-02-28T15:41:44;14.52;;;3.70;;
20794;SDS011;28087;-33.874;151.240;2023-02-28T15:44:26;12.23;;;3.80;;
20794;SDS011;28087;-33.874;151.240;2023-02-28T15:47:13;14.35;;;3.55;;
20794;SDS011;28087;-33.874;151.240;2023-02-28T15:49:56;14.60;;;3.47;;